Time;durP1;ratioP1;P1;durP2;ratioP2;P2;SDS_P1;SDS_P2;PMS_P1;PMS_P2;Temp;Humidity;BMP_temperature;BMP_pressure;BME280_temperature;BME280_humidity;BME280_pressure;Samples;Min_cycle;Max_cycle;Signal;HPM_P1;HPM_P2
2023/02/19 00:01:18;;;;;;;0.52;0.50;;;;;;;7.61;99.35;100759.06;5003929;28;20046;-69
2023/02/19 00:03:50;;;;;;;0.50;0.50;;;;;;;7.60;99.39;100757.53;5004476;28;20025;-70
2023/02/19 00:06:17;;;;;;;1.05;0.75;;;;;;;7.63;99.18;100762.22;5005674;28;20034;-69
2023/02/19 00:08:42;;;;;;;0.52;0.52;;;;;;;7.65;99.16;100755.41;5008123;28;20487;-69
2023/02/19 00:11:14;;;;;;;0.22;0.22;;;;;;;7.70;98.52;100762.47;5007717;28;20083;-70
2023/02/19 00:13:40;;;;;;;;;;;;;;;7.69;98.94;100764.34;5004172;28;20045;-69
2023/02/19 00:16:27;;;;;;;0.50;0.50;;;;;;;7.71;98.42;100770.16;5006963;28;19921;-69
2023/02/19 00:18:54;;;;;;;0.47;0.43;;;;;;;7.69;98.55;100764.34;4961509;28;20043;-69
2023/02/19 00:21:20;;;;;;;0.40;0.40;;;;;;;7.70;98.70;100757.91;4967549;28;20055;-69
2023/02/19 00:23:54;;;;;;;1.67;1.02;;;;;;;7.69;98.66;100750.16;4955154;28;20054;-69
2023/02/19 00:26:20;;;;;;;0.22;0.22;;;;;;;7.71;98.36;100759.44;4953034;28;20042;-69
2023/02/19 00:28:48;;;;;;;1.58;1.17;;;;;;;7.70;98.44;100743.69;4947094;28;20038;-69
2023/02/19 00:31:14;;;;;;;0.47;0.47;;;;;;;7.72;98.51;100749.50;4938127;29;20135;-69
2023/02/19 00:33:40;;;;;;;0.98;0.98;;;;;;;7.63;98.50;100748.81;4933728;28;20497;-69
2023/02/19 00:36:06;;;;;;;0.40;0.40;;;;;;;7.60;98.64;100744.91;4959384;28;20101;-69
2023/02/19 00:38:36;;;;;;;0.57;0.52;;;;;;;7.64;98.79;100743.13;4936471;28;20142;-69
2023/02/19 00:41:17;;;;;;;0.38;0.38;;;;;;;7.66;99.00;100743.59;4959125;28;20027;-69
2023/02/19 00:43:47;;;;;;;0.75;0.75;;;;;;;7.68;98.75;100738.69;4954826;28;20073;-69
2023/02/19 00:46:14;;;;;;;0.30;0.20;;;;;;;7.70;98.48;100735.66;4966318;28;20074;-69
2023/02/19 00:48:40;;;;;;;0.73;0.73;;;;;;;7.64;98.53;100748.50;4952818;28;20093;-69
2023/02/19 00:51:06;;;;;;;0.50;0.50;;;;;;;7.64;99.06;100745.81;4943060;28;20453;-69
2023/02/19 00:53:31;;;;;;;0.55;0.55;;;;;;;7.69;98.49;100748.28;4925621;28;20027;-69
2023/02/19 00:55:56;;;;;;;1.33;0.50;;;;;;;7.65;99.17;100743.91;4973714;28;20491;-69
2023/02/19 00:58:22;;;;;;;0.43;0.43;;;;;;;7.69;98.89;100752.84;5006806;28;20036;-69
2023/02/19 01:00:47;;;;;;;0.68;0.50;;;;;;;7.68;98.94;100757.44;4998178;28;20085;-69
2023/02/19 01:03:13;;;;;;;0.63;0.40;;;;;;;7.70;98.79;100757.09;5000618;28;20037;-69
2023/02/19 01:05:39;;;;;;;0.20;0.20;;;;;;;7.70;98.91;100763.25;5006004;28;20033;-69
2023/02/19 01:08:05;;;;;;;0.55;0.55;;;;;;;7.70;99.29;100760.56;4982632;28;20034;-69
2023/02/19 01:10:30;;;;;;;0.52;0.52;;;;;;;7.72;98.47;100768.28;4989552;28;20117;-69
2023/02/19 01:12:56;;;;;;;0.47;0.47;;;;;;;7.70;98.49;100765.94;4982203;28;20157;-69
2023/02/19 01:15:21;;;;;;;1.00;1.00;;;;;;;7.67;99.03;100760.44;4999242;28;20518;-69
2023/02/19 01:17:47;;;;;;;0.80;0.80;;;;;;;7.73;98.70;100761.78;4999224;28;20030;-69
2023/02/19 01:20:12;;;;;;;0.20;0.20;;;;;;;7.68;98.58;100772.72;4996513;28;20034;-69
2023/02/19 01:22:37;;;;;;;1.40;0.63;;;;;;;7.65;99.09;100768.03;4997751;28;20493;-69
2023/02/19 01:25:05;;;;;;;1.05;0.80;;;;;;;7.69;98.81;100766.25;5002001;28;20041;-69
2023/02/19 01:27:30;;;;;;;1.05;0.68;;;;;;;7.75;98.07;100763.03;4995143;28;20042;-69
2023/02/19 01:29:56;;;;;;;0.43;0.43;;;;;;;7.61;98.44;100759.06;5005784;28;20049;-69
2023/02/19 01:32:21;;;;;;;0.40;0.40;;;;;;;7.60;98.99;100760.19;5004787;28;20066;-69
2023/02/19 01:34:46;;;;;;;1.42;0.82;;;;;;;7.62;99.56;100758.78;4991011;28;20115;-69
2023/02/19 01:37:12;;;;;;;0.90;0.40;;;;;;;7.64;99.44;100758.44;4996468;28;20037;-69
2023/02/19 01:39:38;;;;;;;0.52;0.47;;;;;;;7.66;98.56;100762.34;4981825;28;20014;-69
2023/02/19 01:42:10;;;;;;;0.30;0.30;;;;;;;7.64;98.91;100753.84;4996328;28;20044;-69
2023/02/19 01:44:36;;;;;;;0.35;0.35;;;;;;;7.26;100.00;100753.28;4998916;28;20461;-69
2023/02/19 01:47:01;;;;;;;1.25;0.57;;;;;;;7.21;100.00;100756.97;5006645;28;20126;-69
2023/02/19 01:49:30;;;;;;;1.50;0.60;;;;;;;7.29;100.00;100766.03;5005283;28;20034;-69
2023/02/19 01:51:56;;;;;;;0.35;0.35;;;;;;;7.31;100.00;100769.16;4995831;28;20033;-69
2023/02/19 01:54:25;;;;;;;1.30;0.95;;;;;;;7.42;100.00;100767.63;5005176;28;20049;-69
2023/02/19 01:56:51;;;;;;;0.45;0.28;;;;;;;7.37;100.00;100767.06;4992915;28;20033;-69
2023/02/19 01:59:17;;;;;;;0.40;0.40;;;;;;;7.40;100.00;100761.03;5002350;28;20113;-69
2023/02/19 02:01:43;;;;;;;0.30;0.30;;;;;;;7.44;100.00;100759.25;5000361;28;20041;-69
2023/02/19 02:04:12;;;;;;;0.20;0.20;;;;;;;7.13;100.00;100754.34;4976927;28;20030;-69
2023/02/19 02:06:56;;;;;;;0.55;0.50;;;;;;;7.13;100.00;100762.38;4993759;28;20038;-69
2023/02/19 02:12:11;;;;;;;0.20;0.20;;;;;;;7.11;100.00;100757.38;5003361;28;20537;-68
2023/02/19 02:14:41;;;;;;;0.43;0.43;;;;;;;7.18;100.00;100762.22;4998681;28;20042;-69
2023/02/19 02:17:19;;;;;;;0.20;0.20;;;;;;;6.93;100.00;100753.25;4993113;28;20038;-69
2023/02/19 02:20:14;;;;;;;0.30;0.30;;;;;;;7.07;100.00;100753.78;4975538;28;20030;-69
2023/02/19 02:22:39;;;;;;;0.15;0.15;;;;;;;7.06;100.00;100764.81;5004732;28;20042;-70
2023/02/19 02:25:10;;;;;;;0.20;0.20;;;;;;;6.93;100.00;100753.25;4989474;28;20458;-67
2023/02/19 02:27:56;;;;;;;2.08;0.35;;;;;;;6.82;100.00;100760.13;5017416;28;20581;-68
2023/02/19 02:30:54;;;;;;;0.65;0.65;;;;;;;6.87;100.00;100753.81;4994676;28;20069;-69
2023/02/19 02:33:44;;;;;;;0.90;0.50;;;;;;;6.92;100.00;100764.31;5006607;28;20030;-68
2023/02/19 02:36:12;;;;;;;0.20;0.20;;;;;;;6.97;100.00;100756.84;5001748;28;20025;-67
2023/02/19 02:38:41;;;;;;;0.28;0.28;;;;;;;7.02;100.00;100759.34;5000948;28;20026;-68
2023/02/19 02:41:06;;;;;;;0.30;0.30;;;;;;;7.10;100.00;100766.50;4994284;28;20069;-67
2023/02/19 02:43:32;;;;;;;0.20;0.20;;;;;;;7.10;100.00;100761.16;4989893;28;20449;-68
2023/02/19 02:45:58;;;;;;;0.20;0.20;;;;;;;7.13;100.00;100768.53;5008307;28;20112;-69
2023/02/19 02:48:29;;;;;;;0.63;0.60;;;;;;;7.09;100.00;100764.16;5003830;28;20025;-70
2023/02/19 02:51:12;;;;;;;0.38;0.38;;;;;;;7.00;100.00;100772.28;5005763;28;20453;-68
2023/02/19 02:56:40;;;;;;;0.20;0.20;;;;;;;7.02;100.00;100770.06;5000109;28;20491;-67
2023/02/19 02:59:08;;;;;;;0.20;0.20;;;;;;;6.97;100.00;100770.25;4996862;28;20033;-69
2023/02/19 03:08:17;;;;;;;0.30;0.30;;;;;;;7.01;99.31;100768.47;5003138;28;20546;-69
2023/02/19 03:10:45;;;;;;;0.20;0.20;;;;;;;7.01;99.50;100759.66;4998726;28;20026;-69
2023/02/19 03:19:18;;;;;;;0.30;0.30;;;;;;;7.03;98.83;100768.94;4997615;28;20030;-69
2023/02/19 03:22:08;;;;;;;0.40;0.40;;;;;;;7.07;98.99;100772.53;5003953;28;20094;-70
2023/02/19 03:27:29;;;;;;;0.28;0.28;;;;;;;6.83;99.43;100768.94;4994651;28;20034;-69
2023/02/19 03:30:00;;;;;;;0.40;0.40;;;;;;;6.79;99.67;100782.22;5003397;28;20022;-70
2023/02/19 03:32:31;;;;;;;0.30;0.30;;;;;;;6.80;99.50;100778.41;5009039;28;20513;-70
2023/02/19 03:35:04;;;;;;;0.52;0.30;;;;;;;6.88;99.41;100784.81;4989813;28;20426;-70
2023/02/19 03:37:59;;;;;;;0.30;0.30;;;;;;;6.88;99.02;100784.81;5004909;28;20176;-70
2023/02/19 03:40:29;;;;;;;0.20;0.20;;;;;;;6.95;99.09;100790.44;4982843;28;20045;-70
2023/02/19 03:43:14;;;;;;;0.30;0.30;;;;;;;6.90;99.01;100786.06;4999337;28;20034;-69
2023/02/19 03:46:00;;;;;;;0.52;0.50;;;;;;;6.78;99.24;100790.53;5004647;28;20037;-69
2023/02/19 03:48:28;;;;;;;0.52;0.30;;;;;;;6.88;99.18;100790.16;5000846;28;20034;-69
2023/02/19 03:51:06;;;;;;;0.22;0.22;;;;;;;6.91;98.83;100795.63;5007756;28;20029;-69
2023/02/19 03:53:50;;;;;;;0.30;0.30;;;;;;;6.84;99.15;100803.41;5004502;28;20125;-69
2023/02/19 03:56:36;;;;;;;0.38;0.38;;;;;;;6.87;99.51;100801.97;4999367;28;20060;-69
2023/02/19 03:59:28;;;;;;;0.30;0.30;;;;;;;6.91;99.26;100800.22;4989347;28;20040;-69
2023/02/19 04:01:57;;;;;;;0.30;0.30;;;;;;;6.85;98.81;100807.63;4998360;28;20034;-69
2023/02/19 04:04:31;;;;;;;0.30;0.30;;;;;;;6.76;99.40;100801.56;4991137;28;20045;-69
2023/02/19 04:06:57;;;;;;;0.22;0.22;;;;;;;6.81;99.58;100809.44;5000396;28;20126;-69
2023/02/19 04:09:32;;;;;;;0.20;0.20;;;;;;;6.87;99.72;100810.00;4994193;28;20048;-69
2023/02/19 04:12:05;;;;;;;0.20;0.20;;;;;;;6.80;99.30;100815.09;4997587;28;20214;-69
2023/02/19 04:14:52;;;;;;;0.22;0.22;;;;;;;6.83;99.99;100817.13;4995644;28;20045;-69
2023/02/19 04:17:36;;;;;;;0.25;0.25;;;;;;;6.87;99.63;100821.47;5000396;28;20379;-69
2023/02/19 04:20:06;;;;;;;0.30;0.30;;;;;;;6.86;99.36;100821.81;4995548;28;20057;-69
2023/02/19 04:22:33;;;;;;;0.20;0.20;;;;;;;6.80;99.07;100823.09;4986846;28;20448;-69
2023/02/19 04:24:59;;;;;;;0.40;0.40;;;;;;;6.80;99.70;100823.91;5006506;28;20036;-69
2023/02/19 04:27:25;;;;;;;0.20;0.20;;;;;;;6.86;99.54;100830.63;4994330;28;20038;-69
2023/02/19 04:29:51;;;;;;;0.30;0.30;;;;;;;6.82;99.08;100831.59;4985136;28;20085;-69
2023/02/19 04:32:16;;;;;;;0.32;0.32;;;;;;;6.78;99.06;100838.69;4995937;28;20442;-69
2023/02/19 04:34:42;;;;;;;0.20;0.20;;;;;;;6.85;99.12;100839.00;4993371;28;20046;-69
2023/02/19 04:37:07;;;;;;;0.70;0.70;;;;;;;6.79;98.49;100851.78;5004851;28;20057;-69
2023/02/19 04:39:33;;;;;;;0.32;0.32;;;;;;;6.80;98.58;100847.97;4997908;28;20541;-69
2023/02/19 04:41:58;;;;;;;0.30;0.30;;;;;;;6.81;99.06;100846.91;4996101;28;20084;-69
2023/02/19 04:44:23;;;;;;;0.20;0.20;;;;;;;6.82;98.58;100856.47;4992114;28;20054;-69
2023/02/19 04:46:49;;;;;;;0.60;0.32;;;;;;;6.78;98.59;100860.91;4996607;28;20030;-69
2023/02/19 04:49:14;;;;;;;0.20;0.20;;;;;;;6.78;99.50;100865.47;4994575;28;20042;-69
2023/02/19 04:51:40;;;;;;;0.43;0.40;;;;;;;6.80;98.95;100872.06;4998260;28;20407;-69
2023/02/19 04:54:06;;;;;;;0.40;0.40;;;;;;;6.81;98.85;100868.31;4993440;28;20395;-69
2023/02/19 04:56:31;;;;;;;0.20;0.20;;;;;;;6.83;98.96;100863.38;4999819;28;20164;-69
2023/02/19 04:58:57;;;;;;;0.30;0.30;;;;;;;6.82;98.76;100875.22;4995989;28;20037;-69
2023/02/19 05:01:23;;;;;;;0.38;0.38;;;;;;;6.80;98.37;100877.41;5000981;28;20034;-69
2023/02/19 05:03:49;;;;;;;0.30;0.30;;;;;;;6.83;98.28;100876.75;4998647;28;20026;-69
2023/02/19 05:06:14;;;;;;;1.75;0.47;;;;;;;6.77;97.76;100879.97;4991690;28;20057;-69
2023/02/19 05:08:40;;;;;;;0.50;0.50;;;;;;;6.74;98.25;100889.41;4985598;28;20426;-69
2023/02/19 05:11:09;;;;;;;1.95;0.40;;;;;;;6.74;97.85;100881.38;4999504;28;20038;-69
2023/02/19 05:13:35;;;;;;;0.45;0.45;;;;;;;6.72;98.14;100886.28;4992938;28;20048;-69
2023/02/19 05:16:06;;;;;;;0.20;0.20;;;;;;;6.70;98.45;100879.66;4994205;28;20064;-69
2023/02/19 05:18:33;;;;;;;0.57;0.57;;;;;;;6.70;98.57;100880.47;4992261;28;20030;-69
2023/02/19 05:20:59;;;;;;;0.75;0.68;;;;;;;6.68;98.66;100889.94;4997909;28;20045;-69
2023/02/19 05:23:25;;;;;;;0.20;0.20;;;;;;;6.66;98.68;100884.88;4975014;28;20056;-69
2023/02/19 05:25:51;;;;;;;0.20;0.20;;;;;;;6.66;98.41;100895.59;5005880;28;20046;-69
2023/02/19 05:28:17;;;;;;;0.40;0.40;;;;;;;6.63;98.15;100896.25;5003302;28;20128;-69
2023/02/19 05:30:47;;;;;;;0.47;0.47;;;;;;;6.60;98.18;100902.22;4982600;28;20038;-69
2023/02/19 05:33:13;;;;;;;0.30;0.30;;;;;;;6.59;98.29;100895.31;5000789;28;20030;-69
2023/02/19 05:35:41;;;;;;;0.32;0.32;;;;;;;6.59;98.04;100889.19;4995472;28;20093;-69
2023/02/19 05:38:06;;;;;;;0.32;0.32;;;;;;;6.52;98.31;100895.03;5004027;28;20049;-69
2023/02/19 05:40:32;;;;;;;0.30;0.30;;;;;;;6.42;97.56;100903.41;4999323;28;20241;-69
2023/02/19 05:42:58;;;;;;;0.28;0.28;;;;;;;6.41;98.15;100914.44;5000203;28;20104;-69
2023/02/19 05:45:23;;;;;;;0.30;0.30;;;;;;;6.42;97.64;100918.69;5003666;28;20076;-69
2023/02/19 05:47:49;;;;;;;0.20;0.20;;;;;;;6.35;98.02;100917.28;5003968;28;20030;-69
2023/02/19 05:50:14;;;;;;;0.70;0.70;;;;;;;6.34;98.15;100920.28;4997944;28;20495;-69
2023/02/19 05:52:40;;;;;;;0.50;0.50;;;;;;;6.27;97.60;100933.34;4998062;28;20029;-69
2023/02/19 05:55:05;;;;;;;0.38;0.38;;;;;;;6.25;98.16;100924.88;5000864;28;20410;-69
2023/02/19 05:57:31;;;;;;;0.30;0.30;;;;;;;6.21;97.96;100921.25;4994682;28;20026;-69
2023/02/19 05:59:56;;;;;;;0.30;0.30;;;;;;;6.17;97.61;100931.03;4999934;28;20026;-69
2023/02/19 06:02:22;;;;;;;0.28;0.28;;;;;;;6.13;97.69;100935.44;4984439;28;20027;-69
2023/02/19 06:04:47;;;;;;;0.32;0.32;;;;;;;6.11;97.54;100935.75;4994616;28;20034;-69
2023/02/19 06:07:12;;;;;;;0.25;0.25;;;;;;;6.07;98.36;100944.72;4996844;28;20030;-69
2023/02/19 06:09:38;;;;;;;0.30;0.30;;;;;;;6.02;97.58;100944.88;4996128;28;20030;-69
2023/02/19 06:12:03;;;;;;;0.50;0.45;;;;;;;5.97;97.99;100947.72;4996311;28;20038;-69
2023/02/19 06:14:29;;;;;;;0.35;0.35;;;;;;;5.95;98.41;100960.59;5001809;28;20077;-69
2023/02/19 06:16:54;;;;;;;0.40;0.40;;;;;;;5.97;98.02;100974.44;4991359;28;20037;-69
2023/02/19 06:19:20;;;;;;;0.40;0.40;;;;;;;5.98;98.41;100974.13;5004820;28;20025;-69
2023/02/19 06:21:45;;;;;;;0.63;0.63;;;;;;;5.97;97.83;100985.13;4982351;28;20033;-69
2023/02/19 06:24:11;;;;;;;0.40;0.40;;;;;;;5.95;97.43;100992.66;5002278;28;20046;-69
2023/02/19 06:26:37;;;;;;;0.40;0.40;;;;;;;5.91;97.60;100995.19;5000555;28;20038;-69
2023/02/19 06:29:03;;;;;;;0.30;0.30;;;;;;;5.91;97.90;100991.72;5000355;28;20108;-69
2023/02/19 06:31:28;;;;;;;0.30;0.30;;;;;;;5.86;97.33;100986.56;5003818;28;20117;-69
2023/02/19 06:33:54;;;;;;;0.30;0.30;;;;;;;5.89;97.52;101004.63;5001924;28;20245;-69
2023/02/19 06:36:20;;;;;;;0.43;0.43;;;;;;;5.88;97.35;101006.53;5001423;28;20062;-69
2023/02/19 06:38:45;;;;;;;0.20;0.20;;;;;;;5.86;97.58;101008.72;4996360;28;20023;-69
2023/02/19 06:41:11;;;;;;;0.20;0.20;;;;;;;5.83;97.98;101021.88;4997342;28;20042;-69
2023/02/19 06:43:39;;;;;;;0.30;0.30;;;;;;;5.80;97.66;101025.97;5003838;28;20065;-69
2023/02/19 06:46:26;;;;;;;0.20;0.20;;;;;;;5.72;98.23;101031.28;4998437;28;20044;-69
2023/02/19 06:48:51;;;;;;;0.30;0.30;;;;;;;5.77;98.86;101039.19;4957548;28;20195;-69
2023/02/19 06:51:21;;;;;;;0.30;0.30;;;;;;;5.81;97.96;101050.78;4963360;28;20619;-69
2023/02/19 06:53:47;;;;;;;0.47;0.47;;;;;;;5.79;98.44;101053.00;4938784;29;20051;-69
2023/02/19 06:56:25;;;;;;;0.30;0.30;;;;;;;5.72;98.91;101058.00;4951280;29;20110;-69
2023/02/19 06:58:55;;;;;;;0.60;0.60;;;;;;;5.74;98.78;101061.16;4961941;28;20034;-69
2023/02/19 07:01:22;;;;;;;0.30;0.30;;;;;;;5.83;98.92;101064.63;4962628;28;20041;-69
2023/02/19 07:04:08;;;;;;;0.20;0.20;;;;;;;5.80;99.29;101075.94;4956436;28;20035;-70
2023/02/19 07:06:34;;;;;;;0.68;0.40;;;;;;;5.48;99.56;101077.13;4929792;29;20489;-70
2023/02/19 07:09:00;;;;;;;0.32;0.32;;;;;;;5.59;100.00;101074.97;4918698;29;20509;-70
2023/02/19 07:11:29;;;;;;;0.30;0.30;;;;;;;5.70;99.85;101065.53;4929540;29;20054;-69
2023/02/19 07:13:56;;;;;;;0.47;0.47;;;;;;;5.47;100.00;101073.69;4926239;29;20457;-69
2023/02/19 07:16:22;;;;;;;0.20;0.20;;;;;;;5.62;100.00;101083.13;4932411;29;20114;-70
2023/02/19 07:18:47;;;;;;;0.20;0.20;;;;;;;5.62;100.00;101085.81;4914918;29;20473;-70
2023/02/19 07:21:14;;;;;;;0.20;0.20;;;;;;;5.70;100.00;101092.25;4901433;29;20605;-69
2023/02/19 07:23:41;;;;;;;0.38;0.38;;;;;;;5.80;100.00;101097.31;4927551;29;20056;-69
2023/02/19 07:26:15;;;;;;;0.30;0.30;;;;;;;5.69;100.00;101112.06;4928517;29;20043;-69
2023/02/19 07:28:42;;;;;;;0.20;0.20;;;;;;;5.71;100.00;101109.88;4935249;29;20507;-69
2023/02/19 07:31:07;;;;;;;0.30;0.30;;;;;;;5.69;100.00;101114.75;4935615;29;20051;-69
2023/02/19 07:33:53;;;;;;;0.20;0.20;;;;;;;5.67;100.00;101112.34;4924943;29;20144;-69
2023/02/19 07:36:20;;;;;;;0.47;0.47;;;;;;;5.83;100.00;101123.41;4859439;29;20092;-69
2023/02/19 07:38:46;;;;;;;0.30;0.30;;;;;;;6.00;100.00;101118.91;4875750;29;20056;-68
2023/02/19 07:41:12;;;;;;;0.30;0.30;;;;;;;5.96;100.00;101131.31;4876177;29;20098;-68
2023/02/19 07:43:38;;;;;;;0.73;0.30;;;;;;;5.95;100.00;101137.00;4883046;29;20135;-69
2023/02/19 07:46:10;;;;;;;0.75;0.75;;;;;;;5.94;100.00;101143.44;4916153;29;20416;-68
2023/02/19 07:48:36;;;;;;;0.30;0.30;;;;;;;5.87;100.00;101143.88;4919206;29;20484;-70
2023/02/19 07:51:03;;;;;;;0.40;0.40;;;;;;;5.92;100.00;101149.06;4914619;29;20047;-68
2023/02/19 07:53:29;;;;;;;0.20;0.20;;;;;;;6.02;100.00;101151.47;4932220;29;20610;-68
2023/02/19 07:56:00;;;;;;;0.28;0.28;;;;;;;6.09;100.00;101154.47;4932476;29;20110;-68
2023/02/19 07:58:25;;;;;;;0.30;0.30;;;;;;;6.24;100.00;101158.59;4913006;29;20044;-69
2023/02/19 08:00:51;;;;;;;0.20;0.20;;;;;;;6.41;100.00;101166.63;4929996;29;20103;-68
2023/02/19 08:03:16;;;;;;;0.30;0.30;;;;;;;6.27;100.00;101163.31;4930429;29;20467;-70
2023/02/19 08:05:42;;;;;;;0.40;0.40;;;;;;;6.44;100.00;101178.59;4917898;29;20036;-68
2023/02/19 08:08:11;;;;;;;0.47;0.40;;;;;;;6.39;100.00;101180.31;4931423;29;20062;-68
2023/02/19 08:13:27;;;;;;;0.30;0.30;;;;;;;6.53;100.00;101182.84;4971952;28;20085;-71
2023/02/19 08:15:55;;;;;;;0.20;0.20;;;;;;;6.58;100.00;101190.69;4992362;28;20062;-70
2023/02/19 08:18:24;;;;;;;0.30;0.30;;;;;;;6.54;100.00;101187.09;4999506;28;20044;-69
2023/02/19 08:20:49;;;;;;;0.38;0.38;;;;;;;6.61;100.00;101192.75;4984583;28;20447;-68
2023/02/19 08:23:15;;;;;;;0.30;0.30;;;;;;;6.81;100.00;101197.50;4993592;28;20030;-68
2023/02/19 08:25:41;;;;;;;0.22;0.22;;;;;;;7.19;100.00;101201.06;5001910;28;20322;-71
2023/02/19 08:28:08;;;;;;;0.20;0.20;;;;;;;7.49;100.00;101191.19;4997462;28;20030;-69
2023/02/19 08:30:36;;;;;;;0.20;0.20;;;;;;;7.76;100.00;101206.09;4993244;28;20041;-68
2023/02/19 08:33:03;;;;;;;0.20;0.20;;;;;;;8.01;99.68;101192.53;4992712;28;20049;-67
2023/02/19 08:35:28;;;;;;;0.32;0.32;;;;;;;8.23;98.83;101193.41;5005427;28;20034;-68
2023/02/19 08:37:56;;;;;;;0.20;0.20;;;;;;;8.50;98.85;101192.91;4984846;28;20034;-68
2023/02/19 08:40:42;;;;;;;0.20;0.20;;;;;;;8.77;97.25;101209.28;5004549;28;20057;-70
2023/02/19 08:43:12;;;;;;;0.20;0.20;;;;;;;9.04;96.15;101207.91;4962932;28;20112;-69
2023/02/19 08:45:39;;;;;;;0.20;0.20;;;;;;;9.26;95.49;101209.44;4963307;28;20062;-73
2023/02/19 08:48:05;;;;;;;0.20;0.20;;;;;;;9.39;93.53;101211.84;4963681;28;20046;-68
2023/02/19 08:50:31;;;;;;;0.20;0.20;;;;;;;9.48;90.39;101217.13;4963337;28;20055;-69
2023/02/19 08:53:01;;;;;;;0.10;0.10;;;;;;;9.62;90.66;101228.38;4961027;28;20484;-68
2023/02/19 08:55:27;;;;;;;0.10;0.10;;;;;;;9.73;89.92;101232.19;4940372;29;20445;-68
2023/02/19 08:57:53;;;;;;;0.15;0.15;;;;;;;9.68;89.54;101243.16;4957915;28;20062;-68
2023/02/19 09:00:20;;;;;;;1.17;1.08;;;;;;;9.81;88.50;101250.91;4958719;28;20051;-73
2023/02/19 09:02:46;;;;;;;0.45;0.45;;;;;;;9.89;88.34;101254.63;4940171;28;20097;-68
2023/02/19 09:05:11;;;;;;;0.75;0.38;;;;;;;10.02;87.90;101265.06;4960164;28;20035;-68
2023/02/19 09:07:37;;;;;;;1.80;0.22;;;;;;;10.16;87.32;101261.28;4941345;28;20061;-71
2023/02/19 09:10:03;;;;;;;2.20;0.90;;;;;;;10.22;86.26;101257.25;4959774;28;20043;-68
2023/02/19 09:12:29;;;;;;;0.20;0.20;;;;;;;10.39;86.39;101279.34;4959704;28;20023;-70
2023/02/19 09:14:54;;;;;;;0.00;0.00;;;;;;;10.59;85.15;101291.88;4944270;28;20057;-68
2023/02/19 09:17:20;;;;;;;0.10;0.10;;;;;;;10.69;83.70;101277.94;4962318;28;20113;-68
2023/02/19 09:19:45;;;;;;;0.10;0.10;;;;;;;10.77;82.69;101282.44;4974418;28;20023;-68
2023/02/19 09:22:11;;;;;;;0.30;0.30;;;;;;;10.82;81.17;101292.97;4994128;28;20049;-71
2023/02/19 09:24:36;;;;;;;0.10;0.10;;;;;;;10.82;81.35;101303.72;5003271;28;20037;-69
2023/02/19 09:27:02;;;;;;;0.10;0.10;;;;;;;10.90;81.17;101305.53;5001973;28;20021;-68
2023/02/19 09:29:28;;;;;;;0.10;0.10;;;;;;;11.09;80.49;101306.81;4999803;28;20038;-70
2023/02/19 09:31:58;;;;;;;0.20;0.20;;;;;;;11.24;80.44;101322.28;4995392;28;20048;-71
2023/02/19 09:34:25;;;;;;;0.17;0.17;;;;;;;11.25;79.33;101311.13;5003056;28;20098;-72
2023/02/19 09:36:51;;;;;;;0.00;0.00;;;;;;;11.41;78.70;101308.50;5006959;28;20022;-68
2023/02/19 09:39:16;;;;;;;0.10;0.10;;;;;;;11.47;78.40;101307.13;5011036;28;20034;-71
2023/02/19 09:41:53;;;;;;;0.10;0.10;;;;;;;11.59;77.76;101315.16;5008974;28;20181;-70
2023/02/19 09:44:31;;;;;;;0.10;0.08;;;;;;;11.59;77.45;101318.63;5008835;28;20040;-68
2023/02/19 09:46:59;;;;;;;0.30;0.30;;;;;;;11.49;77.98;101321.06;5006609;28;20050;-69
2023/02/19 09:49:31;;;;;;;0.00;0.00;;;;;;;11.40;77.50;101321.19;5008329;28;20030;-68
2023/02/19 09:52:18;;;;;;;0.88;0.40;;;;;;;11.44;76.82;101332.09;5000854;28;20026;-70
2023/02/19 09:54:45;;;;;;;0.25;0.25;;;;;;;11.40;76.72;101337.38;5004906;28;20458;-70
2023/02/19 09:57:15;;;;;;;0.00;0.00;;;;;;;11.03;77.48;101332.44;5005684;28;20104;-70
2023/02/19 09:59:47;;;;;;;0.20;0.20;;;;;;;10.90;78.11;101340.53;5005014;28;20169;-69
2023/02/19 10:02:15;;;;;;;0.38;0.20;;;;;;;10.79;82.83;101339.44;5000604;28;20077;-69
2023/02/19 10:04:42;;;;;;;0.03;0.03;;;;;;;10.80;80.31;101341.00;4993857;28;20041;-69
2023/02/19 10:07:14;;;;;;;0.20;0.10;;;;;;;10.94;78.30;101353.34;5005398;28;20030;-69
2023/02/19 10:09:39;;;;;;;0.10;0.10;;;;;;;10.82;78.59;101371.09;5003577;28;20109;-70
2023/02/19 10:12:14;;;;;;;0.22;0.20;;;;;;;10.84;78.61;101376.13;4997823;28;20125;-70
2023/02/19 10:14:54;;;;;;;0.10;0.10;;;;;;;10.74;77.52;101377.38;5005944;28;20041;-70
2023/02/19 10:17:28;;;;;;;0.13;0.13;;;;;;;10.58;77.72;101379.19;5022865;28;20450;-70
2023/02/19 10:19:55;;;;;;;0.20;0.20;;;;;;;10.62;77.03;101385.47;5021308;28;20030;-70
2023/02/19 10:22:21;;;;;;;0.10;0.10;;;;;;;10.40;77.04;101393.19;5004278;28;20042;-70
2023/02/19 10:24:51;;;;;;;0.00;0.00;;;;;;;10.28;76.31;101396.66;5009651;28;20699;-70
2023/02/19 10:27:18;;;;;;;0.10;0.10;;;;;;;10.34;77.88;101410.66;4998895;28;20407;-70
2023/02/19 10:29:45;;;;;;;0.10;0.10;;;;;;;10.64;77.54;101409.38;4992672;28;20069;-70
2023/02/19 10:32:23;;;;;;;0.10;0.10;;;;;;;10.74;76.87;101415.09;4999043;28;20124;-70
2023/02/19 10:35:07;;;;;;;0.00;0.00;;;;;;;10.70;76.50;101410.72;4985710;28;20053;-69
2023/02/19 10:37:34;;;;;;;0.00;0.00;;;;;;;10.63;75.26;101415.88;5001467;28;20041;-70
2023/02/19 10:39:59;;;;;;;0.88;0.88;;;;;;;10.73;74.78;101408.16;4995594;28;20161;-69
2023/02/19 10:42:25;;;;;;;0.00;0.00;;;;;;;10.74;75.01;101400.84;4994088;28;20057;-69
2023/02/19 10:45:00;;;;;;;0.30;0.10;;;;;;;10.72;73.28;101417.34;4995533;28;20053;-69
2023/02/19 10:47:28;;;;;;;0.10;0.10;;;;;;;10.37;72.62;101412.72;4996801;28;20038;-69
2023/02/19 10:49:59;;;;;;;0.00;0.00;;;;;;;10.55;72.91;101412.16;5005595;28;20483;-69
2023/02/19 10:52:35;;;;;;;0.00;0.00;;;;;;;10.52;71.43;101418.22;4997237;28;20048;-69
2023/02/19 10:55:19;;;;;;;0.10;0.10;;;;;;;10.35;71.38;101439.97;5007060;28;20487;-69
2023/02/19 10:57:45;;;;;;;0.30;0.30;;;;;;;10.02;68.83;101418.44;4998785;28;20026;-69
2023/02/19 11:00:14;;;;;;;0.10;0.10;;;;;;;10.33;69.86;101414.50;5000230;28;20026;-69
2023/02/19 11:02:40;;;;;;;0.00;0.00;;;;;;;10.12;70.10;101433.41;5004923;28;20374;-69
2023/02/19 11:05:08;;;;;;;0.00;0.00;;;;;;;9.96;67.70;101441.28;5000801;28;20041;-69
2023/02/19 11:07:42;;;;;;;0.10;0.10;;;;;;;10.15;69.41;101438.13;5003307;28;20041;-69
2023/02/19 11:10:26;;;;;;;0.25;0.25;;;;;;;10.26;68.42;101452.72;5003254;28;20039;-69
2023/02/19 11:12:55;;;;;;;0.10;0.10;;;;;;;10.29;69.34;101454.75;4994659;28;20087;-69
2023/02/19 11:15:29;;;;;;;0.22;0.22;;;;;;;10.08;68.32;101459.38;4993830;28;20152;-69
2023/02/19 11:17:58;;;;;;;0.10;0.10;;;;;;;10.17;66.69;101449.34;5016432;28;20074;-69
2023/02/19 11:20:27;;;;;;;0.10;0.10;;;;;;;10.17;67.77;101451.25;5001360;28;20030;-69
2023/02/19 11:22:59;;;;;;;0.10;0.10;;;;;;;10.18;66.98;101458.97;5004633;28;20061;-69
2023/02/19 11:25:25;;;;;;;0.00;0.00;;;;;;;10.24;67.06;101457.66;5005491;28;20117;-69
2023/02/19 11:28:02;;;;;;;0.10;0.10;;;;;;;10.01;64.61;101451.03;5006839;28;20113;-69
2023/02/19 11:30:37;;;;;;;0.10;0.10;;;;;;;9.93;64.93;101446.53;5004583;28;20040;-69
2023/02/19 11:33:15;;;;;;;0.40;0.40;;;;;;;10.02;65.35;101449.94;5001650;28;20042;-69
2023/02/19 11:35:41;;;;;;;0.10;0.10;;;;;;;10.01;65.81;101451.03;5007593;28;20483;-68
2023/02/19 11:38:10;;;;;;;0.00;0.00;;;;;;;10.02;65.90;101448.03;4998121;28;20018;-69
2023/02/19 11:40:44;;;;;;;0.10;0.10;;;;;;;10.04;65.92;101442.31;4998543;28;20541;-69
2023/02/19 11:43:17;;;;;;;0.10;0.10;;;;;;;10.21;64.39;101455.63;5002130;28;20526;-69
2023/02/19 11:45:51;;;;;;;0.10;0.10;;;;;;;10.23;63.40;101466.06;4996242;28;20038;-69
2023/02/19 11:48:36;;;;;;;0.00;0.00;;;;;;;10.14;61.79;101466.16;5005844;28;20471;-69
2023/02/19 11:51:36;;;;;;;0.00;0.00;;;;;;;10.02;61.55;101474.16;5002496;28;20030;-69
2023/02/19 11:54:07;;;;;;;0.10;0.05;;;;;;;10.19;61.77;101478.59;5002747;28;20046;-69
2023/02/19 11:56:35;;;;;;;0.10;0.10;;;;;;;10.05;62.19;101468.09;4995556;28;20697;-69
2023/02/19 11:59:11;;;;;;;0.00;0.00;;;;;;;10.06;63.54;101463.50;5003363;28;20450;-69
2023/02/19 12:02:02;;;;;;;0.25;0.20;;;;;;;9.96;64.08;101470.09;4985946;28;20041;-69
2023/02/19 12:04:30;;;;;;;0.00;0.00;;;;;;;10.27;64.03;101473.16;4994201;28;20610;-69